sensor_id;sensor_type;location;lat;lon;timestamp;P1;durP1;ratioP1;P2;durP2;ratioP2
44137;SDS011;29800;55.942;37.314;2023-04-20T00:01:15;16.23;;;4.80;;
44137;SDS011;29800;55.942;37.314;2023-04-20T00:03:41;12.88;;;4.70;;
44137;SDS011;29800;55.942;37.314;2023-04-20T00:06:08;10.18;;;5.03;;
44137;SDS011;29800;55.942;37.314;2023-04-20T00:08:35;12.50;;;5.22;;
44137;SDS011;29800;55.942;37.314;2023-04-20T00:11:01;8.68;;;4.53;;
44137;SDS011;29800;55.942;37.314;2023-04-20T00:13:34;12.57;;;4.40;;
44137;SDS011;29800;55.942;37.314;2023-04-20T00:16:00;11.75;;;5.10;;
44137;SDS011;29800;55.942;37.314;2023-04-20T00:18:27;10.75;;;4.55;;
44137;SDS011;29800;55.942;37.314;2023-04-20T00:20:54;11.27;;;4.75;;
44137;SDS011;29800;55.942;37.314;2023-04-20T00:23:20;11.27;;;4.82;;
44137;SDS011;29800;55.942;37.314;2023-04-20T00:25:47;15.32;;;5.28;;
44137;SDS011;29800;55.942;37.314;2023-04-20T00:28:14;17.05;;;7.55;;
44137;SDS011;29800;55.942;37.314;2023-04-20T00:30:40;17.75;;;6.65;;
44137;SDS011;29800;55.942;37.314;2023-04-20T00:33:07;14.93;;;6.65;;
44137;SDS011;29800;55.942;37.314;2023-04-20T00:35:33;15.82;;;6.78;;
44137;SDS011;29800;55.942;37.314;2023-04-20T00:38:00;12.32;;;5.47;;
44137;SDS011;29800;55.942;37.314;2023-04-20T00:40:26;12.70;;;5.53;;
44137;SDS011;29800;55.942;37.314;2023-04-20T00:42:52;9.52;;;4.72;;
44137;SDS011;29800;55.942;37.314;2023-04-20T00:45:22;15.00;;;6.47;;
44137;SDS011;29800;55.942;37.314;2023-04-20T00:47:49;16.27;;;6.28;;
44137;SDS011;29800;55.942;37.314;2023-04-20T00:50:16;16.15;;;6.65;;
44137;SDS011;29800;55.942;37.314;2023-04-20T00:52:43;14.40;;;6.22;;
44137;SDS011;29800;55.942;37.314;2023-04-20T00:55:10;17.15;;;6.18;;
44137;SDS011;29800;55.942;37.314;2023-04-20T00:57:37;19.52;;;6.00;;
44137;SDS011;29800;55.942;37.314;2023-04-20T01:00:05;18.85;;;6.10;;
44137;SDS011;29800;55.942;37.314;2023-04-20T01:02:32;18.58;;;6.60;;
44137;SDS011;29800;55.942;37.314;2023-04-20T01:04:59;13.82;;;6.30;;
44137;SDS011;29800;55.942;37.314;2023-04-20T01:07:29;16.50;;;5.60;;
44137;SDS011;29800;55.942;37.314;2023-04-20T01:09:56;16.15;;;5.70;;
44137;SDS011;29800;55.942;37.314;2023-04-20T01:12:22;16.55;;;4.47;;
44137;SDS011;29800;55.942;37.314;2023-04-20T01:14:48;8.77;;;4.38;;
44137;SDS011;29800;55.942;37.314;2023-04-20T01:17:17;10.25;;;4.50;;
44137;SDS011;29800;55.942;37.314;2023-04-20T01:19:45;15.00;;;4.13;;
44137;SDS011;29800;55.942;37.314;2023-04-20T01:22:20;9.07;;;4.45;;
44137;SDS011;29800;55.942;37.314;2023-04-20T01:24:47;11.60;;;4.28;;
44137;SDS011;29800;55.942;37.314;2023-04-20T01:27:14;10.75;;;4.43;;
44137;SDS011;29800;55.942;37.314;2023-04-20T01:29:42;9.95;;;5.00;;
44137;SDS011;29800;55.942;37.314;2023-04-20T01:32:09;8.60;;;4.43;;
44137;SDS011;29800;55.942;37.314;2023-04-20T01:34:36;14.77;;;4.60;;
44137;SDS011;29800;55.942;37.314;2023-04-20T01:37:03;8.00;;;4.05;;
44137;SDS011;29800;55.942;37.314;2023-04-20T01:39:36;10.10;;;4.00;;
44137;SDS011;29800;55.942;37.314;2023-04-20T01:42:03;9.45;;;3.95;;
44137;SDS011;29800;55.942;37.314;2023-04-20T01:44:30;8.63;;;4.47;;
44137;SDS011;29800;55.942;37.314;2023-04-20T01:46:58;10.15;;;4.22;;
44137;SDS011;29800;55.942;37.314;2023-04-20T01:49:24;7.25;;;4.18;;
44137;SDS011;29800;55.942;37.314;2023-04-20T01:51:51;8.80;;;3.95;;
44137;SDS011;29800;55.942;37.314;2023-04-20T01:54:17;8.00;;;3.78;;
44137;SDS011;29800;55.942;37.314;2023-04-20T01:56:44;8.68;;;4.10;;
44137;SDS011;29800;55.942;37.314;2023-04-20T01:59:10;10.82;;;4.05;;
44137;SDS011;29800;55.942;37.314;2023-04-20T02:01:36;9.45;;;4.07;;
44137;SDS011;29800;55.942;37.314;2023-04-20T02:04:03;7.07;;;4.22;;
44137;SDS011;29800;55.942;37.314;2023-04-20T02:06:29;17.95;;;6.25;;
44137;SDS011;29800;55.942;37.314;2023-04-20T02:08:59;19.58;;;6.65;;
44137;SDS011;29800;55.942;37.314;2023-04-20T02:11:25;23.90;;;7.72;;
44137;SDS011;29800;55.942;37.314;2023-04-20T02:13:51;15.95;;;7.03;;
44137;SDS011;29800;55.942;37.314;2023-04-20T02:16:18;16.20;;;6.38;;
44137;SDS011;29800;55.942;37.314;2023-04-20T02:18:46;20.15;;;6.80;;
44137;SDS011;29800;55.942;37.314;2023-04-20T02:21:13;14.25;;;6.20;;
44137;SDS011;29800;55.942;37.314;2023-04-20T02:23:39;12.93;;;5.20;;
44137;SDS011;29800;55.942;37.314;2023-04-20T02:26:05;12.77;;;5.15;;
44137;SDS011;29800;55.942;37.314;2023-04-20T02:28:32;15.30;;;5.57;;
44137;SDS011;29800;55.942;37.314;2023-04-20T02:30:58;17.48;;;5.53;;
44137;SDS011;29800;55.942;37.314;2023-04-20T02:33:25;14.07;;;6.13;;
44137;SDS011;29800;55.942;37.314;2023-04-20T02:35:52;20.85;;;6.95;;
44137;SDS011;29800;55.942;37.314;2023-04-20T02:38:18;17.08;;;7.07;;
44137;SDS011;29800;55.942;37.314;2023-04-20T02:40:45;15.73;;;7.78;;
44137;SDS011;29800;55.942;37.314;2023-04-20T02:43:11;36.08;;;14.45;;
44137;SDS011;29800;55.942;37.314;2023-04-20T02:45:39;49.85;;;21.13;;
44137;SDS011;29800;55.942;37.314;2023-04-20T02:48:07;52.90;;;22.48;;
44137;SDS011;29800;55.942;37.314;2023-04-20T02:50:35;44.03;;;19.77;;
44137;SDS011;29800;55.942;37.314;2023-04-20T02:53:21;43.78;;;19.58;;
44137;SDS011;29800;55.942;37.314;2023-04-20T02:55:56;38.97;;;16.63;;
44137;SDS011;29800;55.942;37.314;2023-04-20T02:58:40;31.88;;;13.10;;
44137;SDS011;29800;55.942;37.314;2023-04-20T03:01:17;25.42;;;10.77;;
44137;SDS011;29800;55.942;37.314;2023-04-20T03:03:46;25.20;;;8.75;;
44137;SDS011;29800;55.942;37.314;2023-04-20T03:06:13;21.98;;;8.05;;
44137;SDS011;29800;55.942;37.314;2023-04-20T03:08:45;20.02;;;8.43;;
44137;SDS011;29800;55.942;37.314;2023-04-20T03:11:32;18.77;;;7.10;;
44137;SDS011;29800;55.942;37.314;2023-04-20T03:13:58;14.98;;;6.50;;
44137;SDS011;29800;55.942;37.314;2023-04-20T03:16:25;17.27;;;6.88;;
44137;SDS011;29800;55.942;37.314;2023-04-20T03:18:54;13.10;;;7.05;;
44137;SDS011;29800;55.942;37.314;2023-04-20T03:21:21;14.30;;;6.18;;
44137;SDS011;29800;55.942;37.314;2023-04-20T03:23:48;9.70;;;4.55;;
44137;SDS011;29800;55.942;37.314;2023-04-20T03:26:14;7.72;;;4.38;;
44137;SDS011;29800;55.942;37.314;2023-04-20T03:29:07;11.20;;;4.55;;
44137;SDS011;29800;55.942;37.314;2023-04-20T03:31:34;11.98;;;4.22;;
44137;SDS011;29800;55.942;37.314;2023-04-20T03:34:00;11.13;;;3.88;;
44137;SDS011;29800;55.942;37.314;2023-04-20T03:36:27;7.82;;;3.75;;
44137;SDS011;29800;55.942;37.314;2023-04-20T03:38:55;8.63;;;3.72;;
44137;SDS011;29800;55.942;37.314;2023-04-20T03:41:21;8.98;;;4.05;;
44137;SDS011;29800;55.942;37.314;2023-04-20T03:43:48;7.78;;;3.90;;
44137;SDS011;29800;55.942;37.314;2023-04-20T03:46:14;7.80;;;4.00;;
44137;SDS011;29800;55.942;37.314;2023-04-20T03:48:41;8.32;;;3.83;;
44137;SDS011;29800;55.942;37.314;2023-04-20T03:51:07;8.43;;;3.67;;
44137;SDS011;29800;55.942;37.314;2023-04-20T03:53:34;6.95;;;3.80;;
44137;SDS011;29800;55.942;37.314;2023-04-20T03:56:00;9.15;;;3.67;;
44137;SDS011;29800;55.942;37.314;2023-04-20T03:58:27;6.20;;;3.65;;
44137;SDS011;29800;55.942;37.314;2023-04-20T04:01:06;5.43;;;3.25;;
44137;SDS011;29800;55.942;37.314;2023-04-20T04:03:38;8.00;;;3.55;;
44137;SDS011;29800;55.942;37.314;2023-04-20T04:06:05;12.02;;;3.70;;
44137;SDS011;29800;55.942;37.314;2023-04-20T04:08:34;6.88;;;3.55;;
44137;SDS011;29800;55.942;37.314;2023-04-20T04:11:02;7.60;;;3.70;;
44137;SDS011;29800;55.942;37.314;2023-04-20T04:13:28;5.13;;;3.45;;
44137;SDS011;29800;55.942;37.314;2023-04-20T04:15:55;9.95;;;3.88;;
44137;SDS011;29800;55.942;37.314;2023-04-20T04:18:22;8.40;;;3.80;;
44137;SDS011;29800;55.942;37.314;2023-04-20T04:20:49;8.35;;;4.13;;
44137;SDS011;29800;55.942;37.314;2023-04-20T04:23:16;8.75;;;4.10;;
44137;SDS011;29800;55.942;37.314;2023-04-20T04:25:48;10.73;;;4.00;;
44137;SDS011;29800;55.942;37.314;2023-04-20T04:28:22;8.70;;;4.03;;
44137;SDS011;29800;55.942;37.314;2023-04-20T04:30:57;9.90;;;4.15;;
44137;SDS011;29800;55.942;37.314;2023-04-20T04:33:26;8.98;;;4.00;;
44137;SDS011;29800;55.942;37.314;2023-04-20T04:35:53;7.45;;;4.05;;
44137;SDS011;29800;55.942;37.314;2023-04-20T04:38:20;11.13;;;4.38;;
44137;SDS011;29800;55.942;37.314;2023-04-20T04:40:48;13.77;;;4.18;;
44137;SDS011;29800;55.942;37.314;2023-04-20T04:43:17;9.02;;;4.43;;
44137;SDS011;29800;55.942;37.314;2023-04-20T04:45:52;7.95;;;4.20;;
44137;SDS011;29800;55.942;37.314;2023-04-20T04:48:21;12.98;;;4.15;;
44137;SDS011;29800;55.942;37.314;2023-04-20T04:50:47;10.40;;;4.53;;
44137;SDS011;29800;55.942;37.314;2023-04-20T04:53:14;15.15;;;4.50;;
44137;SDS011;29800;55.942;37.314;2023-04-20T04:55:40;10.38;;;3.95;;
44137;SDS011;29800;55.942;37.314;2023-04-20T04:58:07;11.30;;;4.40;;
44137;SDS011;29800;55.942;37.314;2023-04-20T05:00:33;10.30;;;4.30;;
44137;SDS011;29800;55.942;37.314;2023-04-20T05:02:59;42.97;;;6.32;;
44137;SDS011;29800;55.942;37.314;2023-04-20T05:05:26;9.40;;;4.18;;
44137;SDS011;29800;55.942;37.314;2023-04-20T05:07:52;10.70;;;4.55;;
44137;SDS011;29800;55.942;37.314;2023-04-20T05:10:19;9.52;;;4.25;;
44137;SDS011;29800;55.942;37.314;2023-04-20T05:12:46;10.35;;;4.53;;
44137;SDS011;29800;55.942;37.314;2023-04-20T05:15:13;10.48;;;4.50;;
44137;SDS011;29800;55.942;37.314;2023-04-20T05:17:39;10.57;;;5.43;;
44137;SDS011;29800;55.942;37.314;2023-04-20T05:20:06;16.45;;;5.15;;
44137;SDS011;29800;55.942;37.314;2023-04-20T05:22:35;10.68;;;4.70;;
44137;SDS011;29800;55.942;37.314;2023-04-20T05:25:01;8.68;;;4.65;;
44137;SDS011;29800;55.942;37.314;2023-04-20T05:27:29;7.88;;;4.72;;
44137;SDS011;29800;55.942;37.314;2023-04-20T05:29:57;11.88;;;4.07;;
44137;SDS011;29800;55.942;37.314;2023-04-20T05:32:24;10.18;;;4.47;;
44137;SDS011;29800;55.942;37.314;2023-04-20T05:34:50;10.63;;;4.65;;
44137;SDS011;29800;55.942;37.314;2023-04-20T05:37:17;7.43;;;4.03;;
44137;SDS011;29800;55.942;37.314;2023-04-20T05:39:43;10.50;;;4.60;;
44137;SDS011;29800;55.942;37.314;2023-04-20T05:42:09;10.48;;;4.45;;
44137;SDS011;29800;55.942;37.314;2023-04-20T05:44:36;10.88;;;4.30;;
44137;SDS011;29800;55.942;37.314;2023-04-20T05:47:04;9.38;;;4.45;;
44137;SDS011;29800;55.942;37.314;2023-04-20T05:49:34;7.60;;;3.67;;
44137;SDS011;29800;55.942;37.314;2023-04-20T05:52:00;7.88;;;3.28;;
44137;SDS011;29800;55.942;37.314;2023-04-20T05:54:28;8.35;;;4.20;;
44137;SDS011;29800;55.942;37.314;2023-04-20T05:56:54;11.40;;;4.43;;
44137;SDS011;29800;55.942;37.314;2023-04-20T05:59:22;9.77;;;4.18;;
44137;SDS011;29800;55.942;37.314;2023-04-20T06:01:50;9.38;;;4.57;;
44137;SDS011;29800;55.942;37.314;2023-04-20T06:04:16;7.97;;;4.55;;
44137;SDS011;29800;55.942;37.314;2023-04-20T06:06:43;11.00;;;4.57;;
44137;SDS011;29800;55.942;37.314;2023-04-20T06:09:09;13.85;;;4.40;;
44137;SDS011;29800;55.942;37.314;2023-04-20T06:11:36;9.65;;;4.00;;
44137;SDS011;29800;55.942;37.314;2023-04-20T06:14:02;8.25;;;4.32;;
44137;SDS011;29800;55.942;37.314;2023-04-20T06:16:29;7.65;;;4.07;;
44137;SDS011;29800;55.942;37.314;2023-04-20T06:18:55;10.93;;;4.07;;
44137;SDS011;29800;55.942;37.314;2023-04-20T06:21:22;12.55;;;4.10;;
44137;SDS011;29800;55.942;37.314;2023-04-20T06:23:49;6.60;;;3.92;;
44137;SDS011;29800;55.942;37.314;2023-04-20T06:26:15;10.98;;;3.95;;
44137;SDS011;29800;55.942;37.314;2023-04-20T06:28:42;10.05;;;4.35;;
44137;SDS011;29800;55.942;37.314;2023-04-20T06:31:08;9.80;;;4.50;;
44137;SDS011;29800;55.942;37.314;2023-04-20T06:33:34;6.18;;;3.88;;
44137;SDS011;29800;55.942;37.314;2023-04-20T06:36:01;11.45;;;4.63;;
44137;SDS011;29800;55.942;37.314;2023-04-20T06:38:31;7.53;;;4.32;;
44137;SDS011;29800;55.942;37.314;2023-04-20T06:40:57;10.95;;;4.28;;
44137;SDS011;29800;55.942;37.314;2023-04-20T06:43:29;9.57;;;4.30;;
44137;SDS011;29800;55.942;37.314;2023-04-20T06:45:56;8.80;;;4.00;;
44137;SDS011;29800;55.942;37.314;2023-04-20T06:48:22;11.25;;;4.30;;
44137;SDS011;29800;55.942;37.314;2023-04-20T06:50:49;9.65;;;4.13;;
44137;SDS011;29800;55.942;37.314;2023-04-20T06:53:16;12.70;;;4.28;;
44137;SDS011;29800;55.942;37.314;2023-04-20T06:55:42;11.27;;;3.95;;
44137;SDS011;29800;55.942;37.314;2023-04-20T06:58:09;14.55;;;4.05;;
44137;SDS011;29800;55.942;37.314;2023-04-20T07:00:35;9.73;;;3.97;;
44137;SDS011;29800;55.942;37.314;2023-04-20T07:03:02;10.70;;;3.50;;
44137;SDS011;29800;55.942;37.314;2023-04-20T07:05:29;7.10;;;3.55;;
44137;SDS011;29800;55.942;37.314;2023-04-20T07:07:55;9.40;;;3.40;;
44137;SDS011;29800;55.942;37.314;2023-04-20T07:10:22;6.97;;;3.65;;
44137;SDS011;29800;55.942;37.314;2023-04-20T07:12:48;10.80;;;3.97;;
44137;SDS011;29800;55.942;37.314;2023-04-20T07:15:15;7.97;;;3.63;;
44137;SDS011;29800;55.942;37.314;2023-04-20T07:17:41;5.90;;;3.10;;
44137;SDS011;29800;55.942;37.314;2023-04-20T07:20:07;5.30;;;3.20;;
44137;SDS011;29800;55.942;37.314;2023-04-20T07:22:35;7.82;;;3.20;;
44137;SDS011;29800;55.942;37.314;2023-04-20T07:25:05;8.35;;;3.33;;
44137;SDS011;29800;55.942;37.314;2023-04-20T07:27:34;8.55;;;3.47;;
44137;SDS011;29800;55.942;37.314;2023-04-20T07:30:05;8.43;;;3.80;;
44137;SDS011;29800;55.942;37.314;2023-04-20T07:32:35;5.72;;;3.15;;
44137;SDS011;29800;55.942;37.314;2023-04-20T07:35:02;5.63;;;3.17;;
44137;SDS011;29800;55.942;37.314;2023-04-20T07:37:32;8.85;;;3.53;;
44137;SDS011;29800;55.942;37.314;2023-04-20T07:39:59;6.90;;;3.70;;
44137;SDS011;29800;55.942;37.314;2023-04-20T07:42:25;5.95;;;3.47;;
44137;SDS011;29800;55.942;37.314;2023-04-20T07:44:53;8.23;;;3.40;;
44137;SDS011;29800;55.942;37.314;2023-04-20T07:47:19;12.70;;;6.20;;
44137;SDS011;29800;55.942;37.314;2023-04-20T07:49:45;9.07;;;4.07;;
44137;SDS011;29800;55.942;37.314;2023-04-20T07:52:12;6.03;;;3.17;;
44137;SDS011;29800;55.942;37.314;2023-04-20T07:54:38;6.60;;;3.22;;
44137;SDS011;29800;55.942;37.314;2023-04-20T07:57:05;7.00;;;3.40;;
44137;SDS011;29800;55.942;37.314;2023-04-20T07:59:32;5.25;;;3.08;;
44137;SDS011;29800;55.942;37.314;2023-04-20T08:01:59;4.97;;;3.10;;
44137;SDS011;29800;55.942;37.314;2023-04-20T08:04:27;8.35;;;3.25;;
44137;SDS011;29800;55.942;37.314;2023-04-20T08:06:56;5.18;;;3.17;;
44137;SDS011;29800;55.942;37.314;2023-04-20T08:09:23;5.88;;;3.10;;
44137;SDS011;29800;55.942;37.314;2023-04-20T08:11:51;7.70;;;3.25;;
44137;SDS011;29800;55.942;37.314;2023-04-20T08:14:17;7.95;;;4.15;;
44137;SDS011;29800;55.942;37.314;2023-04-20T08:16:43;8.70;;;3.42;;
44137;SDS011;29800;55.942;37.314;2023-04-20T08:19:10;5.68;;;2.90;;
44137;SDS011;29800;55.942;37.314;2023-04-20T08:21:37;5.65;;;3.58;;
44137;SDS011;29800;55.942;37.314;2023-04-20T08:24:04;5.45;;;2.95;;
44137;SDS011;29800;55.942;37.314;2023-04-20T08:26:31;6.35;;;2.83;;
44137;SDS011;29800;55.942;37.314;2023-04-20T08:28:59;4.60;;;2.92;;
44137;SDS011;29800;55.942;37.314;2023-04-20T08:31:26;8.43;;;3.40;;
44137;SDS011;29800;55.942;37.314;2023-04-20T08:33:53;8.13;;;3.10;;
44137;SDS011;29800;55.942;37.314;2023-04-20T08:36:19;6.35;;;3.53;;
44137;SDS011;29800;55.942;37.314;2023-04-20T08:38:52;5.68;;;3.15;;
44137;SDS011;29800;55.942;37.314;2023-04-20T08:41:30;5.93;;;3.07;;
44137;SDS011;29800;55.942;37.314;2023-04-20T08:43:56;7.25;;;3.20;;
44137;SDS011;29800;55.942;37.314;2023-04-20T08:46:23;7.50;;;3.40;;
44137;SDS011;29800;55.942;37.314;2023-04-20T08:48:49;8.63;;;3.70;;
44137;SDS011;29800;55.942;37.314;2023-04-20T08:51:21;10.00;;;3.70;;
44137;SDS011;29800;55.942;37.314;2023-04-20T08:53:47;11.73;;;4.13;;
44137;SDS011;29800;55.942;37.314;2023-04-20T08:56:14;7.85;;;3.75;;
44137;SDS011;29800;55.942;37.314;2023-04-20T08:58:41;6.43;;;3.85;;
44137;SDS011;29800;55.942;37.314;2023-04-20T09:01:08;7.78;;;3.42;;
44137;SDS011;29800;55.942;37.314;2023-04-20T09:03:37;4.88;;;2.95;;
44137;SDS011;29800;55.942;37.314;2023-04-20T09:06:12;6.88;;;3.30;;
44137;SDS011;29800;55.942;37.314;2023-04-20T09:08:41;12.63;;;5.05;;
44137;SDS011;29800;55.942;37.314;2023-04-20T09:11:24;8.02;;;3.30;;
44137;SDS011;29800;55.942;37.314;2023-04-20T09:14:04;5.03;;;3.00;;
44137;SDS011;29800;55.942;37.314;2023-04-20T09:16:35;8.38;;;3.42;;
44137;SDS011;29800;55.942;37.314;2023-04-20T09:19:04;8.63;;;3.60;;
44137;SDS011;29800;55.942;37.314;2023-04-20T09:21:31;5.25;;;3.00;;
44137;SDS011;29800;55.942;37.314;2023-04-20T09:24:02;8.90;;;3.92;;
44137;SDS011;29800;55.942;37.314;2023-04-20T09:26:33;6.43;;;3.63;;
44137;SDS011;29800;55.942;37.314;2023-04-20T09:29:01;5.25;;;3.50;;
44137;SDS011;29800;55.942;37.314;2023-04-20T09:31:29;6.75;;;3.47;;
44137;SDS011;29800;55.942;37.314;2023-04-20T09:33:56;7.72;;;3.17;;
44137;SDS011;29800;55.942;37.314;2023-04-20T09:36:23;4.47;;;2.65;;
44137;SDS011;29800;55.942;37.314;2023-04-20T09:39:10;5.45;;;2.92;;
44137;SDS011;29800;55.942;37.314;2023-04-20T09:41:39;4.95;;;2.90;;
44137;SDS011;29800;55.942;37.314;2023-04-20T09:44:07;5.80;;;2.78;;
44137;SDS011;29800;55.942;37.314;2023-04-20T09:46:36;8.55;;;2.85;;
44137;SDS011;29800;55.942;37.314;2023-04-20T09:49:05;16.83;;;3.08;;
44137;SDS011;29800;55.942;37.314;2023-04-20T09:51:36;6.32;;;3.03;;
44137;SDS011;29800;55.942;37.314;2023-04-20T09:54:07;6.38;;;3.38;;
44137;SDS011;29800;55.942;37.314;2023-04-20T09:56:33;5.50;;;2.90;;
44137;SDS011;29800;55.942;37.314;2023-04-20T09:59:00;7.43;;;2.40;;
44137;SDS011;29800;55.942;37.314;2023-04-20T10:01:29;7.82;;;2.95;;
44137;SDS011;29800;55.942;37.314;2023-04-20T10:03:58;6.80;;;2.90;;
44137;SDS011;29800;55.942;37.314;2023-04-20T10:06:29;9.18;;;2.78;;
44137;SDS011;29800;55.942;37.314;2023-04-20T10:09:02;3.83;;;2.70;;
44137;SDS011;29800;55.942;37.314;2023-04-20T10:11:34;12.65;;;3.05;;
44137;SDS011;29800;55.942;37.314;2023-04-20T10:14:15;8.27;;;3.70;;
44137;SDS011;29800;55.942;37.314;2023-04-20T10:16:45;28.80;;;19.20;;
44137;SDS011;29800;55.942;37.314;2023-04-20T10:19:23;10.07;;;5.95;;
44137;SDS011;29800;55.942;37.314;2023-04-20T10:21:49;7.72;;;3.65;;
44137;SDS011;29800;55.942;37.314;2023-04-20T10:24:29;6.78;;;3.35;;
44137;SDS011;29800;55.942;37.314;2023-04-20T10:26:56;5.72;;;3.00;;
44137;SDS011;29800;55.942;37.314;2023-04-20T10:29:23;7.88;;;3.20;;
44137;SDS011;29800;55.942;37.314;2023-04-20T10:31:51;9.27;;;3.60;;
44137;SDS011;29800;55.942;37.314;2023-04-20T10:37:24;11.90;;;3.67;;
44137;SDS011;29800;55.942;37.314;2023-04-20T10:39:51;5.55;;;3.17;;
44137;SDS011;29800;55.942;37.314;2023-04-20T10:42:17;4.95;;;3.13;;
44137;SDS011;29800;55.942;37.314;2023-04-20T10:44:50;10.77;;;4.10;;
44137;SDS011;29800;55.942;37.314;2023-04-20T10:47:28;9.02;;;3.00;;
44137;SDS011;29800;55.942;37.314;2023-04-20T10:52:37;7.95;;;4.63;;
44137;SDS011;29800;55.942;37.314;2023-04-20T10:55:07;11.80;;;3.30;;
44137;SDS011;29800;55.942;37.314;2023-04-20T10:57:46;12.10;;;4.50;;
44137;SDS011;29800;55.942;37.314;2023-04-20T11:00:16;9.60;;;6.05;;
44137;SDS011;29800;55.942;37.314;2023-04-20T11:02:48;6.28;;;3.20;;
44137;SDS011;29800;55.942;37.314;2023-04-20T11:05:19;6.15;;;2.85;;
44137;SDS011;29800;55.942;37.314;2023-04-20T11:07:57;6.72;;;3.22;;
44137;SDS011;29800;55.942;37.314;2023-04-20T11:10:40;4.97;;;3.00;;
44137;SDS011;29800;55.942;37.314;2023-04-20T11:13:20;5.65;;;2.72;;
44137;SDS011;29800;55.942;37.314;2023-04-20T11:15:48;6.15;;;2.60;;
44137;SDS011;29800;55.942;37.314;2023-04-20T11:18:14;8.90;;;2.75;;
44137;SDS011;29800;55.942;37.314;2023-04-20T11:20:58;7.53;;;2.90;;
44137;SDS011;29800;55.942;37.314;2023-04-20T11:23:35;5.95;;;2.80;;
44137;SDS011;29800;55.942;37.314;2023-04-20T11:26:02;5.82;;;2.70;;
44137;SDS011;29800;55.942;37.314;2023-04-20T11:28:29;8.25;;;3.03;;
44137;SDS011;29800;55.942;37.314;2023-04-20T11:30:59;5.63;;;3.05;;
44137;SDS011;29800;55.942;37.314;2023-04-20T11:33:26;4.97;;;3.00;;
44137;SDS011;29800;55.942;37.314;2023-04-20T11:35:57;6.22;;;3.30;;
44137;SDS011;29800;55.942;37.314;2023-04-20T11:38:30;5.45;;;2.85;;
44137;SDS011;29800;55.942;37.314;2023-04-20T11:40:58;4.22;;;2.60;;
44137;SDS011;29800;55.942;37.314;2023-04-20T11:43:33;5.60;;;2.60;;
44137;SDS011;29800;55.942;37.314;2023-04-20T11:46:00;6.55;;;2.67;;
44137;SDS011;29800;55.942;37.314;2023-04-20T11:48:30;4.18;;;2.53;;
44137;SDS011;29800;55.942;37.314;2023-04-20T11:50:57;8.18;;;2.72;;
44137;SDS011;29800;55.942;37.314;2023-04-20T11:53:23;4.38;;;3.00;;
44137;SDS011;29800;55.942;37.314;2023-04-20T11:55:50;4.80;;;3.45;;
44137;SDS011;29800;55.942;37.314;2023-04-20T11:58:16;5.18;;;3.13;;
44137;SDS011;29800;55.942;37.314;2023-04-20T12:00:43;6.28;;;2.90;;
44137;SDS011;29800;55.942;37.314;2023-04-20T12:03:09;4.55;;;2.72;;
44137;SDS011;29800;55.942;37.314;2023-04-20T12:05:36;6.60;;;2.50;;
44137;SDS011;29800;55.942;37.314;2023-04-20T12:08:02;5.10;;;2.60;;
44137;SDS011;29800;55.942;37.314;2023-04-20T12:10:29;3.53;;;2.47;;
44137;SDS011;29800;55.942;37.314;2023-04-20T12:12:55;6.03;;;2.78;;
44137;SDS011;29800;55.942;37.314;2023-04-20T12:15:23;4.05;;;2.60;;
44137;SDS011;29800;55.942;37.314;2023-04-20T12:17:49;5.88;;;2.40;;
44137;SDS011;29800;55.942;37.314;2023-04-20T12:20:16;5.75;;;2.85;;
44137;SDS011;29800;55.942;37.314;2023-04-20T12:22:42;19.75;;;11.20;;
44137;SDS011;29800;55.942;37.314;2023-04-20T12:25:08;7.95;;;4.78;;
44137;SDS011;29800;55.942;37.314;2023-04-20T12:27:35;15.40;;;8.70;;
44137;SDS011;29800;55.942;37.314;2023-04-20T12:30:02;11.25;;;8.32;;
44137;SDS011;29800;55.942;37.314;2023-04-20T12:32:32;12.13;;;10.88;;
44137;SDS011;29800;55.942;37.314;2023-04-20T12:34:58;21.13;;;16.08;;
44137;SDS011;29800;55.942;37.314;2023-04-20T12:37:25;10.05;;;6.72;;
44137;SDS011;29800;55.942;37.314;2023-04-20T12:39:52;66.20;;;53.08;;
44137;SDS011;29800;55.942;37.314;2023-04-20T12:42:18;61.22;;;51.75;;
44137;SDS011;29800;55.942;37.314;2023-04-20T12:44:44;41.85;;;30.25;;
44137;SDS011;29800;55.942;37.314;2023-04-20T12:47:11;23.17;;;14.48;;
44137;SDS011;29800;55.942;37.314;2023-04-20T12:49:38;9.15;;;4.32;;
44137;SDS011;29800;55.942;37.314;2023-04-20T12:52:05;14.35;;;7.78;;
44137;SDS011;29800;55.942;37.314;2023-04-20T12:54:32;10.32;;;6.68;;
44137;SDS011;29800;55.942;37.314;2023-04-20T12:56:58;5.10;;;3.13;;
44137;SDS011;29800;55.942;37.314;2023-04-20T12:59:25;10.77;;;4.70;;
44137;SDS011;29800;55.942;37.314;2023-04-20T13:01:52;20.65;;;12.65;;
44137;SDS011;29800;55.942;37.314;2023-04-20T13:04:18;10.25;;;6.40;;
44137;SDS011;29800;55.942;37.314;2023-04-20T13:06:44;16.35;;;8.00;;
44137;SDS011;29800;55.942;37.314;2023-04-20T13:09:11;13.38;;;8.18;;
44137;SDS011;29800;55.942;37.314;2023-04-20T13:11:37;16.90;;;9.07;;
44137;SDS011;29800;55.942;37.314;2023-04-20T13:14:04;22.15;;;14.32;;
44137;SDS011;29800;55.942;37.314;2023-04-20T13:16:30;36.13;;;23.35;;
44137;SDS011;29800;55.942;37.314;2023-04-20T13:18:57;6.35;;;4.95;;
44137;SDS011;29800;55.942;37.314;2023-04-20T13:21:27;12.75;;;7.55;;
44137;SDS011;29800;55.942;37.314;2023-04-20T13:23:54;5.68;;;3.60;;
44137;SDS011;29800;55.942;37.314;2023-04-20T13:26:20;14.20;;;8.68;;
44137;SDS011;29800;55.942;37.314;2023-04-20T13:28:47;8.98;;;5.97;;
44137;SDS011;29800;55.942;37.314;2023-04-20T13:31:13;4.93;;;3.35;;
44137;SDS011;29800;55.942;37.314;2023-04-20T13:33:40;7.80;;;3.90;;
44137;SDS011;29800;55.942;37.314;2023-04-20T13:36:07;6.40;;;3.70;;
44137;SDS011;29800;55.942;37.314;2023-04-20T13:38:33;6.00;;;3.97;;
44137;SDS011;29800;55.942;37.314;2023-04-20T13:41:00;5.78;;;3.47;;
44137;SDS011;29800;55.942;37.314;2023-04-20T13:43:27;5.72;;;3.47;;
44137;SDS011;29800;55.942;37.314;2023-04-20T13:45:53;5.57;;;3.08;;
44137;SDS011;29800;55.942;37.314;2023-04-20T13:48:20;7.57;;;2.80;;
44137;SDS011;29800;55.942;37.314;2023-04-20T13:50:46;7.90;;;3.15;;
44137;SDS011;29800;55.942;37.314;2023-04-20T13:53:13;16.70;;;6.38;;
44137;SDS011;29800;55.942;37.314;2023-04-20T13:55:39;10.43;;;5.82;;
44137;SDS011;29800;55.942;37.314;2023-04-20T13:58:06;6.43;;;4.28;;
44137;SDS011;29800;55.942;37.314;2023-04-20T14:00:32;12.50;;;6.05;;
44137;SDS011;29800;55.942;37.314;2023-04-20T14:02:58;9.52;;;5.22;;
44137;SDS011;29800;55.942;37.314;2023-04-20T14:05:25;10.27;;;6.20;;
44137;SDS011;29800;55.942;37.314;2023-04-20T14:07:51;18.75;;;11.13;;
44137;SDS011;29800;55.942;37.314;2023-04-20T14:10:18;10.48;;;7.22;;
44137;SDS011;29800;55.942;37.314;2023-04-20T14:12:46;34.72;;;19.95;;
44137;SDS011;29800;55.942;37.314;2023-04-20T14:15:13;33.50;;;21.27;;
44137;SDS011;29800;55.942;37.314;2023-04-20T14:17:39;19.45;;;10.38;;
44137;SDS011;29800;55.942;37.314;2023-04-20T14:20:06;17.25;;;12.05;;
44137;SDS011;29800;55.942;37.314;2023-04-20T14:22:33;20.98;;;14.85;;
44137;SDS011;29800;55.942;37.314;2023-04-20T14:25:02;29.20;;;17.80;;
44137;SDS011;29800;55.942;37.314;2023-04-20T14:27:29;20.70;;;12.90;;
44137;SDS011;29800;55.942;37.314;2023-04-20T14:29:56;22.80;;;12.82;;
44137;SDS011;29800;55.942;37.314;2023-04-20T14:32:23;17.27;;;10.23;;
44137;SDS011;29800;55.942;37.314;2023-04-20T14:34:49;15.88;;;7.75;;
44137;SDS011;29800;55.942;37.314;2023-04-20T14:37:15;13.13;;;5.97;;
44137;SDS011;29800;55.942;37.314;2023-04-20T14:39:42;15.32;;;9.00;;